Terminal Aerodrome Forecast
Issued by NWS

Home | Current Version | Previous Version | Text Only | Print | Product List | Glossary On
Versions: 1 2 3 4 5 6 7 8 9 10 11 12 13 14 15 16 17 18 19 20 21 22
000
FTUS41 KGYX 011504 AAC
TAFAUG
TAF AMD
KAUG 011504Z 0115/0212 18005KT 5SM -RA BR SCT006 OVC100
     FM011600 16007KT 6SM -SHRA BR OVC025
     FM020000 16008KT 1 1/2SM SHRA BR OVC015=

USA.gov is the U.S. government's official web portal to all federal, state and local government web resources and services.